2II7 weather

K-9 Korner Heliport
Ossian, Indiana, United States

Public forecast

Using degrees Fahrenheit for public forecast. Weather courtesy of forecast.io.

METAR (pilot weather report)

Closest report is Fort Wayne International Airport, 5.2 nm (9.6 km) N. Retrieved 2019/04/25 21:44 UTC (0 seconds ago):

KFWA 252144Z 07006KT 2SM RA BR SCT007 OVC012 15/14 A2970

TAF (pilot weather forecast)

Closest forecast is Fort Wayne International Airport, 5.2 nm (9.6 km) N. Retrieved 2019/04/25 18:45 UTC (3 hours ago):

TAF KFWA 251742Z 2518/2618 07004KT P6SM VCSH BKN013 OVC040 FM252200 11005KT 4SM SHRA BR OVC007 FM260600 33012G20KT 5SM SHRA BR OVC006 FM261400 33015G25KT P6SM BKN020 FM261700 34012G18KT P6SM SCT035